createdAt,value
2024-04-05T00:03:57.112Z,17.4
2024-04-05T00:09:02.551Z,17.5
2024-04-05T00:14:27.365Z,17.4
2024-04-05T00:19:48.873Z,17.5
2024-04-05T00:25:09.683Z,17.4
2024-04-05T00:30:15.463Z,17.4
2024-04-05T00:35:36.197Z,17.4
2024-04-05T00:40:56.801Z,17.4
2024-04-05T00:46:21.933Z,17.4
2024-04-05T00:51:43.696Z,17.4
2024-04-05T00:56:33.727Z,17.4
2024-04-05T01:01:39.796Z,17.4
2024-04-05T01:07:16.115Z,17.4
2024-04-05T01:12:52.313Z,17.4
2024-04-05T01:18:13.365Z,17.4
2024-04-05T01:23:50.361Z,17.4
2024-04-05T01:29:26.614Z,17.4
2024-04-05T01:35:02.406Z,17.4
2024-04-05T01:40:38.980Z,17.4
2024-04-05T01:46:15.654Z,17.3
2024-04-05T01:51:22.413Z,17.4
2024-04-05T01:56:43.731Z,17.3
2024-04-05T02:02:20.309Z,17.3
2024-04-05T02:07:56.853Z,17.3
2024-04-05T02:13:33.689Z,17.3
2024-04-05T02:19:10.164Z,17.3
2024-04-05T02:24:46.750Z,17.3
2024-04-05T02:30:23.399Z,17.3
2024-04-05T02:35:44.011Z,17.3
2024-04-05T02:41:20.475Z,17.3
2024-04-05T02:46:56.748Z,17.3
2024-04-05T02:52:17.869Z,17.3
2024-04-05T02:57:38.457Z,17.3
2024-04-05T03:03:14.738Z,17.3
2024-04-05T03:08:50.671Z,17.3
2024-04-05T03:14:27.473Z,17.3
2024-04-05T03:20:05.008Z,17.3
2024-04-05T03:25:40.941Z,17.3
2024-04-05T03:31:17.521Z,17.2
2024-04-05T03:36:54.127Z,17.2
2024-04-05T03:42:15.541Z,17.2
2024-04-05T03:47:05.896Z,17.2
2024-04-05T03:52:43.087Z,17.2
2024-04-05T03:58:19.629Z,17.2
2024-04-05T04:03:55.420Z,17.2
2024-04-05T04:09:18.309Z,17.1
2024-04-05T04:14:54.925Z,17.1
2024-04-05T04:20:31.069Z,17.1
2024-04-05T04:26:07.280Z,17.1
2024-04-05T04:31:30.506Z,17.1
2024-04-05T04:36:51.254Z,17.1
2024-04-05T04:42:14.451Z,17.1
2024-04-05T04:47:35.656Z,17.1
2024-04-05T04:52:58.697Z,17.1
2024-04-05T04:58:19.740Z,17.1
2024-04-05T05:03:10.319Z,17.1
2024-04-05T05:08:31.659Z,17.1
2024-04-05T05:13:37.279Z,17.1
2024-04-05T05:19:02.001Z,17.1
2024-04-05T05:24:23.049Z,17.1
2024-04-05T05:29:44.935Z,17.1
2024-04-05T05:35:06.312Z,17.1
2024-04-05T06:01:57.386Z,17.1
2024-04-05T08:10:18.606Z,17.1
2024-04-05T08:15:56.954Z,17.1
2024-04-05T08:21:32.903Z,17.1
2024-04-05T08:27:09.339Z,17.1
2024-04-05T08:32:46.755Z,17.1
2024-04-05T08:38:08.570Z,17.1
2024-04-05T08:43:33.676Z,17.1
2024-04-05T08:48:41.475Z,17.1
2024-04-05T08:53:49.360Z,17.1
2024-04-05T08:59:26.293Z,17.1
2024-04-05T09:05:02.112Z,17.1
2024-04-05T09:10:50.574Z,17.1
2024-04-05T09:16:30.195Z,17.1
2024-04-05T09:22:06.948Z,17.1
2024-04-05T09:27:27.624Z,17.1
2024-04-05T09:33:07.338Z,17.1
2024-04-05T09:38:44.203Z,17.1
2024-04-05T09:44:37.612Z,17.1
2024-04-05T09:50:16.980Z,17.1
2024-04-05T09:55:38.172Z,17.1
2024-04-05T10:01:14.690Z,17.1
2024-04-05T10:06:38.944Z,17.1
2024-04-05T10:12:15.973Z,17.1
2024-04-05T10:17:49.014Z,17.2
2024-04-05T10:23:26.334Z,17.2
2024-04-05T10:28:47.802Z,17.2
2024-04-05T10:34:24.347Z,17.2
2024-04-05T10:40:30.408Z,17.3
2024-04-05T10:45:51.423Z,17.2
2024-04-05T10:51:30.669Z,17.2
2024-04-05T10:57:10.088Z,17.2
2024-04-05T11:02:16.723Z,17.3
2024-04-05T11:07:53.711Z,17.3
2024-04-05T11:13:15.297Z,17.3
2024-04-05T11:18:39.452Z,17.3
2024-04-05T11:24:15.869Z,17.3
2024-04-05T11:29:52.904Z,17.3
2024-04-05T11:35:28.951Z,17.3
2024-04-05T11:41:20.686Z,17.3
2024-04-05T11:46:58.500Z,17.3
2024-04-05T11:52:35.435Z,17.3
2024-04-05T11:58:13.027Z,17.3
2024-04-05T12:03:49.565Z,17.3
2024-04-05T12:09:11.144Z,17.3
2024-04-05T12:14:51.832Z,17.3
2024-04-05T12:20:29.271Z,17.3
2024-04-05T12:26:05.337Z,17.3
2024-04-05T12:31:59.064Z,17.3
2024-04-05T12:37:35.922Z,17.4
2024-04-05T12:43:29.785Z,17.3
2024-04-05T12:49:06.739Z,17.4
2024-04-05T12:54:46.725Z,17.4
2024-04-05T13:00:25.976Z,17.4
2024-04-05T13:06:09.816Z,17.4
2024-04-05T13:11:46.479Z,17.4
2024-04-05T13:17:24.052Z,17.4
2024-04-05T13:23:06.194Z,17.4
2024-04-05T13:28:27.161Z,17.4
2024-04-05T13:34:03.532Z,17.4
2024-04-05T13:39:28.424Z,17.4
2024-04-05T13:45:04.658Z,17.4
2024-04-05T13:50:26.145Z,17.4
2024-04-05T13:56:02.813Z,17.4
2024-04-05T14:01:41.739Z,17.5
2024-04-05T14:07:20.060Z,17.4
2024-04-05T14:12:58.922Z,17.5
2024-04-05T14:18:36.613Z,17.5
2024-04-05T14:24:14.177Z,17.5
2024-04-05T14:29:53.667Z,17.5
2024-04-05T14:35:35.957Z,17.5
2024-04-05T14:41:16.349Z,17.5
2024-04-05T14:46:53.836Z,17.5
2024-04-05T14:52:31.499Z,17.6
2024-04-05T14:57:57.216Z,17.5
2024-04-05T15:03:35.207Z,17.6
2024-04-05T15:08:59.405Z,17.6
2024-04-05T15:14:05.287Z,17.6
2024-04-05T15:19:42.432Z,17.7
2024-04-05T15:25:04.476Z,17.7
2024-04-05T15:30:28.261Z,17.7
2024-04-05T15:35:36.686Z,17.7
2024-04-05T15:41:13.291Z,17.7
2024-04-05T15:46:49.619Z,17.7
2024-04-05T15:52:30.348Z,17.6
2024-04-05T15:58:07.060Z,17.8
2024-04-05T16:03:44.801Z,17.8
2024-04-05T16:09:26.057Z,17.8
2024-04-05T16:15:02.603Z,17.8
2024-04-05T16:20:38.433Z,17.9
2024-04-05T16:26:14.457Z,17.9
2024-04-05T16:31:51.259Z,17.8
2024-04-05T16:37:12.078Z,17.8
2024-04-05T16:42:48.725Z,17.8
2024-04-05T16:48:10.241Z,17.8
2024-04-05T16:53:33.389Z,17.9
2024-04-05T16:59:12.365Z,17.9
2024-04-05T17:04:49.052Z,17.9
2024-04-05T17:10:09.347Z,17.9
2024-04-05T17:15:45.872Z,17.9
2024-04-05T17:21:22.934Z,17.9
2024-04-05T17:26:45.658Z,17.9
2024-04-05T17:32:22.357Z,17.9
2024-04-05T17:37:58.830Z,17.9
2024-04-05T17:43:19.685Z,17.9
2024-04-05T17:48:40.956Z,17.9
2024-04-05T17:54:17.548Z,17.9
2024-04-05T17:59:38.910Z,17.9
2024-04-05T18:05:16.448Z,17.9
2024-04-05T18:10:54.093Z,17.9
2024-04-05T18:16:14.608Z,17.9
2024-04-05T18:21:35.540Z,17.9
2024-04-05T18:27:12.173Z,17.9
2024-04-05T18:32:49.927Z,17.9
2024-04-05T18:38:27.378Z,17.9
2024-04-05T18:44:04.407Z,17.9
2024-04-05T18:49:40.989Z,17.9
2024-04-05T18:55:02.230Z,17.8
2024-04-05T19:00:39.278Z,17.9
2024-04-05T19:06:15.486Z,17.9
2024-04-05T19:11:54.794Z,17.9
2024-04-05T19:17:16.084Z,17.9
2024-04-05T19:22:52.130Z,17.8
2024-04-05T19:28:29.193Z,17.9
2024-04-05T19:34:06.013Z,17.8
2024-04-05T19:39:41.748Z,17.8
2024-04-05T19:45:19.979Z,17.8
2024-04-05T19:50:41.130Z,17.8
2024-04-05T19:56:04.680Z,17.8
2024-04-05T20:01:54.391Z,17.8
2024-04-05T20:07:30.946Z,17.8
2024-04-05T20:13:10.793Z,17.8
2024-04-05T20:18:32.189Z,17.8
2024-04-05T20:24:08.701Z,17.8
2024-04-05T20:29:49.841Z,17.8
2024-04-05T20:35:10.471Z,17.8
2024-04-05T20:40:31.482Z,17.8
2024-04-05T20:46:08.088Z,17.8
2024-04-05T20:51:29.268Z,17.8
2024-04-05T20:56:52.478Z,17.8
2024-04-05T21:02:13.586Z,17.8
2024-04-05T21:07:49.041Z,17.8
2024-04-05T21:13:25.620Z,17.8
2024-04-05T21:18:45.916Z,17.8
2024-04-05T21:24:31.771Z,17.7
2024-04-05T21:29:52.257Z,17.7
2024-04-05T21:35:28.630Z,17.7
2024-04-05T21:40:50.744Z,17.7
2024-04-05T21:46:27.905Z,17.7
2024-04-05T21:53:31.857Z,17.7
2024-04-05T21:58:53.245Z,17.7
2024-04-05T22:04:16.232Z,17.7
2024-04-05T22:09:36.572Z,17.7
2024-04-05T22:15:08.938Z,17.7
2024-04-05T22:20:32.559Z,17.6
2024-04-05T22:25:37.876Z,17.7
2024-04-05T22:31:14.211Z,17.6
2024-04-05T22:36:50.826Z,17.6
2024-04-05T22:42:29.922Z,17.6
2024-04-05T22:48:06.463Z,17.6
2024-04-05T22:53:28.022Z,17.6
2024-04-05T22:59:04.023Z,17.6
2024-04-05T23:04:49.215Z,17.6
2024-04-05T23:10:10.516Z,17.6
2024-04-05T23:15:46.808Z,17.6
2024-04-05T23:21:23.006Z,17.6
2024-04-05T23:26:59.767Z,17.6
2024-04-05T23:32:36.740Z,17.6
2024-04-05T23:38:13.160Z,17.6
2024-04-05T23:43:34.343Z,17.6
2024-04-05T23:49:12.010Z,17.6
2024-04-05T23:54:50.550Z,17.6
